Startpagina
METAR-TAF:

METAR-TAF

Vliegvelden :

Julius Nyerere International Airport

Dar es Salaam, Tanzania

breedte: 06-52S, lengte: 039-12E, hoogte: 55 m

Actueel weer

Dit bericht is 1 uur en het 20 minuten geleden gemaakt, om 14:00 UTC
Weinig wind
Temperatuur 30°C
Vochtigheid 70%
Druk 1009 hPa
Zicht 10 km of meer
Verspreide wolken op 2100 ft
Weinig wolken op 2300 ft, Cumulonimbus.

METAR: HTDA 151400Z 00000KT 9999 SCT021 FEW023CB 30/24 Q1009 NOSIG

Tijdstip: 18:20 (15:20 UTC)

Verwachting

Dit bericht is 4 uur en het 20 minuten geleden gemaakt, om 11:00 UTC
Verwachting geldig van 15 om 12 UTC tot 16 om 18 UTC
Wind 15 kt uit het noordnoordoosten
Zicht 10 km of meer
Gebroken wolken op 2300 ft
Weinig wolken op 2400 ft, Cumulonimbus.
Wijzigt naar
van 15 om 17 UTC tot 15 om 19 UTC
Wind 5 kt uit het noordnoordoosten
Verspreide wolken op 1700 ft

TAF: HTDA 151100Z 1512/1618 02015KT 9999 BKN023 FEW024CB BECMG 1517/1519 03005KT SCT017

Waarnemingen en weersverwachtingen van meer dan 4000 vliegvelden (METAR en TAF).

De beschikbare stations zijn de gele en rode punten op de kaart.

Ga met uw muis naar het station om de naam te zien.

Klik dan om waarnemingen en weersverwachtingen te zien.

kaart wijzigen: klik op de groene knoppen met een zwart kruis om in te zoomen, op de groene knop met een streepje om uit te zoomen of op de groene pijlen voor aangrenzende kaarten.


METAR-TAF: